Antonio B. Won Pat International Airport
PGUM : now visible

Airfield :











YOU CAN JOIN US ON...

 
LOGIN :

Register | Disclaimer

   EN    FR    IT 

 









Legend :    VFR   Marginal VFR   IFR   Intensive IFR   Very Intensive IFR
Visi :
Ceiling :
>= 8 km
>= 3000ft
5 to 8 km
1000 to 3000 ft
1500m to 5 km
500 to 1000 ft
800 to 1500m
200 to 500 ft
< 800m
< 200 ft
Symbols :   Thunderstorms  Fog  Heavy snow  Heavy precipitations  Wind > 20 kt






- Airport Elevation : 298 ft
- IATA code : GUM


PGUM - Antonio B. Won Pat International

CURRENT METAR :
  • 110654Z 10010KT 10SM FEW021 30/24 A2981 RMK AO2 SLP085 T03000239 $

EXPIRED METARs :
  • 110554Z 08008KT 10SM SCT027 SCT035 30/25 A2980 RMK AO2 RAB07E22 SLP084 P0000 60014 T03000250 10317 20267 56009 $
  • 110511Z 07011G19KT 4SM RA SCT021 29/25 A2981 RMK AO2 RAB07 P0000 T02890250 $
  • 110454Z 06011KT 10SM CLR 32/25 A2981 RMK AO2 SLP086 T03170250 $
  • 110354Z VRB05KT 10SM FEW020 FEW025 28/26 A2981 RMK AO2 RAB06E33 SLP085 P0007 T02830261 $

TAF PGUM
Valid from the 11 at 06:00 until the 12 at 12:00 UTC


110533Z 1106/1212 08011KT P6SM VCSH SCT018 SCT050
PGZU FIR / Oceania



MET'MAP, your aeronautical weather chart ! - Copyright ORBIFLY December 2007 - Disclaimer

ORBIFLY MET'MAP TEAM :

Programming & Development : Alexandra Zaïnal
Concept & original design : Baudouin d'Aumeries
Assistance for programming : Marc-Olivier Méhu
Technical & hardware support : Manuel Goepfert

Contact : metmap@orbifly.com




SOURCES & CREDITS :

   NOAA       Earth
Advisory